sensor_id;sensor_type;location;lat;lon;timestamp;P1;durP1;ratioP1;P2;durP2;ratioP2
21202;SDS011;10759;51.982;9.232;2022-09-28T00:01:04;6.45;;;5.85;;
21202;SDS011;10759;51.982;9.232;2022-09-28T00:03:32;6.07;;;5.57;;
21202;SDS011;10759;51.982;9.232;2022-09-28T00:06:01;5.28;;;4.88;;
21202;SDS011;10759;51.982;9.232;2022-09-28T00:08:30;6.72;;;6.15;;
21202;SDS011;10759;51.982;9.232;2022-09-28T00:10:58;20.75;;;13.00;;
21202;SDS011;10759;51.982;9.232;2022-09-28T00:13:26;42.35;;;25.95;;
21202;SDS011;10759;51.982;9.232;2022-09-28T00:15:59;35.17;;;20.55;;
21202;SDS011;10759;51.982;9.232;2022-09-28T00:18:29;12.27;;;11.02;;
21202;SDS011;10759;51.982;9.232;2022-09-28T00:21:01;34.45;;;20.80;;
21202;SDS011;10759;51.982;9.232;2022-09-28T00:23:31;22.20;;;15.52;;
21202;SDS011;10759;51.982;9.232;2022-09-28T00:26:00;13.32;;;10.27;;
21202;SDS011;10759;51.982;9.232;2022-09-28T00:28:29;7.53;;;6.80;;
21202;SDS011;10759;51.982;9.232;2022-09-28T00:30:57;7.60;;;7.10;;
21202;SDS011;10759;51.982;9.232;2022-09-28T00:33:27;7.78;;;7.10;;
21202;SDS011;10759;51.982;9.232;2022-09-28T00:35:55;9.38;;;8.48;;
21202;SDS011;10759;51.982;9.232;2022-09-28T00:38:26;8.45;;;7.45;;
21202;SDS011;10759;51.982;9.232;2022-09-28T00:40:55;8.38;;;7.57;;
21202;SDS011;10759;51.982;9.232;2022-09-28T00:43:25;8.00;;;7.35;;
21202;SDS011;10759;51.982;9.232;2022-09-28T00:45:55;8.80;;;8.00;;
21202;SDS011;10759;51.982;9.232;2022-09-28T00:48:28;8.80;;;8.02;;
21202;SDS011;10759;51.982;9.232;2022-09-28T00:50:59;10.18;;;8.75;;
21202;SDS011;10759;51.982;9.232;2022-09-28T00:53:33;10.48;;;9.57;;
21202;SDS011;10759;51.982;9.232;2022-09-28T00:56:05;8.85;;;8.05;;
21202;SDS011;10759;51.982;9.232;2022-09-28T00:58:38;9.30;;;8.50;;
21202;SDS011;10759;51.982;9.232;2022-09-28T01:01:10;7.82;;;7.22;;
21202;SDS011;10759;51.982;9.232;2022-09-28T01:03:41;7.28;;;6.68;;
21202;SDS011;10759;51.982;9.232;2022-09-28T01:06:12;8.05;;;7.32;;
21202;SDS011;10759;51.982;9.232;2022-09-28T01:08:44;8.88;;;8.15;;
21202;SDS011;10759;51.982;9.232;2022-09-28T01:11:17;8.27;;;7.68;;
21202;SDS011;10759;51.982;9.232;2022-09-28T01:13:46;8.80;;;8.10;;
21202;SDS011;10759;51.982;9.232;2022-09-28T01:16:18;9.25;;;8.45;;
21202;SDS011;10759;51.982;9.232;2022-09-28T01:19:04;8.48;;;7.68;;
21202;SDS011;10759;51.982;9.232;2022-09-28T01:21:46;7.57;;;7.05;;
21202;SDS011;10759;51.982;9.232;2022-09-28T01:24:21;9.52;;;8.73;;
21202;SDS011;10759;51.982;9.232;2022-09-28T01:27:07;9.63;;;8.88;;
21202;SDS011;10759;51.982;9.232;2022-09-28T01:29:44;13.52;;;8.88;;
21202;SDS011;10759;51.982;9.232;2022-09-28T01:35:06;8.80;;;8.05;;
21202;SDS011;10759;51.982;9.232;2022-09-28T01:37:39;12.05;;;10.25;;
21202;SDS011;10759;51.982;9.232;2022-09-28T01:40:10;9.02;;;8.25;;
21202;SDS011;10759;51.982;9.232;2022-09-28T01:42:43;9.52;;;8.73;;
21202;SDS011;10759;51.982;9.232;2022-09-28T01:45:15;129.70;;;57.90;;
21202;SDS011;10759;51.982;9.232;2022-09-28T01:47:49;40.67;;;25.08;;
21202;SDS011;10759;51.982;9.232;2022-09-28T01:50:22;10.20;;;9.20;;
21202;SDS011;10759;51.982;9.232;2022-09-28T01:52:55;9.30;;;8.27;;
21202;SDS011;10759;51.982;9.232;2022-09-28T01:55:29;8.23;;;7.65;;
21202;SDS011;10759;51.982;9.232;2022-09-28T01:58:04;8.15;;;7.53;;
21202;SDS011;10759;51.982;9.232;2022-09-28T02:00:38;9.02;;;7.30;;
21202;SDS011;10759;51.982;9.232;2022-09-28T02:03:15;8.68;;;7.82;;
21202;SDS011;10759;51.982;9.232;2022-09-28T02:05:53;8.93;;;8.23;;
21202;SDS011;10759;51.982;9.232;2022-09-28T02:08:26;9.50;;;8.07;;
21202;SDS011;10759;51.982;9.232;2022-09-28T02:11:00;8.95;;;8.15;;
21202;SDS011;10759;51.982;9.232;2022-09-28T02:13:34;9.68;;;8.77;;
21202;SDS011;10759;51.982;9.232;2022-09-28T02:16:08;9.07;;;8.18;;
21202;SDS011;10759;51.982;9.232;2022-09-28T02:18:40;8.98;;;8.27;;
21202;SDS011;10759;51.982;9.232;2022-09-28T02:21:14;8.50;;;7.80;;
21202;SDS011;10759;51.982;9.232;2022-09-28T02:23:51;7.85;;;7.15;;
21202;SDS011;10759;51.982;9.232;2022-09-28T02:26:24;8.55;;;7.85;;
21202;SDS011;10759;51.982;9.232;2022-09-28T02:28:58;8.27;;;7.57;;
21202;SDS011;10759;51.982;9.232;2022-09-28T02:31:26;7.90;;;7.30;;
21202;SDS011;10759;51.982;9.232;2022-09-28T02:33:55;8.13;;;7.32;;
21202;SDS011;10759;51.982;9.232;2022-09-28T02:36:24;7.87;;;7.07;;
21202;SDS011;10759;51.982;9.232;2022-09-28T02:38:53;8.32;;;7.63;;
21202;SDS011;10759;51.982;9.232;2022-09-28T02:41:29;8.38;;;7.68;;
21202;SDS011;10759;51.982;9.232;2022-09-28T02:44:09;8.73;;;7.78;;
21202;SDS011;10759;51.982;9.232;2022-09-28T02:46:51;8.65;;;7.85;;
21202;SDS011;10759;51.982;9.232;2022-09-28T02:49:33;8.85;;;8.07;;
21202;SDS011;10759;51.982;9.232;2022-09-28T02:52:21;9.18;;;8.27;;
21202;SDS011;10759;51.982;9.232;2022-09-28T02:55:13;8.85;;;8.02;;
21202;SDS011;10759;51.982;9.232;2022-09-28T02:57:50;9.77;;;8.98;;
21202;SDS011;10759;51.982;9.232;2022-09-28T03:00:31;8.82;;;8.13;;
21202;SDS011;10759;51.982;9.232;2022-09-28T03:03:07;8.07;;;7.40;;
21202;SDS011;10759;51.982;9.232;2022-09-28T03:05:46;8.55;;;7.85;;
21202;SDS011;10759;51.982;9.232;2022-09-28T03:08:31;8.98;;;7.75;;
21202;SDS011;10759;51.982;9.232;2022-09-28T03:11:08;9.20;;;8.40;;
21202;SDS011;10759;51.982;9.232;2022-09-28T03:13:44;8.30;;;7.60;;
21202;SDS011;10759;51.982;9.232;2022-09-28T03:16:15;8.63;;;7.93;;
21202;SDS011;10759;51.982;9.232;2022-09-28T03:18:47;8.02;;;7.43;;
21202;SDS011;10759;51.982;9.232;2022-09-28T03:21:17;8.43;;;7.82;;
21202;SDS011;10759;51.982;9.232;2022-09-28T03:23:44;8.73;;;8.00;;
21202;SDS011;10759;51.982;9.232;2022-09-28T03:28:43;9.63;;;8.07;;
21202;SDS011;10759;51.982;9.232;2022-09-28T03:31:18;9.20;;;8.50;;
21202;SDS011;10759;51.982;9.232;2022-09-28T03:33:46;8.80;;;8.10;;
21202;SDS011;10759;51.982;9.232;2022-09-28T03:36:14;9.07;;;8.38;;
21202;SDS011;10759;51.982;9.232;2022-09-28T03:38:42;9.35;;;8.73;;
21202;SDS011;10759;51.982;9.232;2022-09-28T03:41:10;10.25;;;9.35;;
21202;SDS011;10759;51.982;9.232;2022-09-28T03:43:40;8.75;;;8.15;;
21202;SDS011;10759;51.982;9.232;2022-09-28T03:46:11;8.90;;;8.10;;
21202;SDS011;10759;51.982;9.232;2022-09-28T03:48:45;9.38;;;8.68;;
21202;SDS011;10759;51.982;9.232;2022-09-28T03:53:42;7.55;;;6.95;;
21202;SDS011;10759;51.982;9.232;2022-09-28T03:56:12;6.93;;;6.43;;
21202;SDS011;10759;51.982;9.232;2022-09-28T03:58:41;6.38;;;5.72;;
21202;SDS011;10759;51.982;9.232;2022-09-28T04:01:11;6.32;;;5.93;;
21202;SDS011;10759;51.982;9.232;2022-09-28T04:03:46;5.20;;;4.90;;
21202;SDS011;10759;51.982;9.232;2022-09-28T04:06:14;4.88;;;4.53;;
21202;SDS011;10759;51.982;9.232;2022-09-28T04:08:42;4.72;;;4.32;;
21202;SDS011;10759;51.982;9.232;2022-09-28T04:11:10;3.45;;;3.20;;
21202;SDS011;10759;51.982;9.232;2022-09-28T04:13:39;3.45;;;3.15;;
21202;SDS011;10759;51.982;9.232;2022-09-28T04:16:09;2.45;;;2.35;;
21202;SDS011;10759;51.982;9.232;2022-09-28T04:18:41;2.30;;;2.10;;
21202;SDS011;10759;51.982;9.232;2022-09-28T04:21:34;2.70;;;2.55;;
21202;SDS011;10759;51.982;9.232;2022-09-28T04:24:09;3.35;;;3.03;;
21202;SDS011;10759;51.982;9.232;2022-09-28T04:26:37;3.58;;;3.38;;
21202;SDS011;10759;51.982;9.232;2022-09-28T04:29:07;2.28;;;2.10;;
21202;SDS011;10759;51.982;9.232;2022-09-28T04:31:45;2.50;;;2.22;;
21202;SDS011;10759;51.982;9.232;2022-09-28T04:34:16;2.08;;;1.98;;
21202;SDS011;10759;51.982;9.232;2022-09-28T04:36:48;3.85;;;1.90;;
21202;SDS011;10759;51.982;9.232;2022-09-28T04:39:17;2.25;;;2.05;;
21202;SDS011;10759;51.982;9.232;2022-09-28T04:41:48;2.28;;;2.17;;
21202;SDS011;10759;51.982;9.232;2022-09-28T04:44:17;2.95;;;2.15;;
21202;SDS011;10759;51.982;9.232;2022-09-28T04:46:46;2.13;;;2.03;;
21202;SDS011;10759;51.982;9.232;2022-09-28T04:49:29;2.05;;;1.95;;
21202;SDS011;10759;51.982;9.232;2022-09-28T04:52:05;2.20;;;2.03;;
21202;SDS011;10759;51.982;9.232;2022-09-28T04:54:33;2.80;;;2.65;;
21202;SDS011;10759;51.982;9.232;2022-09-28T04:57:01;2.10;;;2.00;;
21202;SDS011;10759;51.982;9.232;2022-09-28T04:59:31;3.15;;;2.70;;
21202;SDS011;10759;51.982;9.232;2022-09-28T05:01:59;2.90;;;2.70;;
21202;SDS011;10759;51.982;9.232;2022-09-28T05:04:45;3.60;;;2.55;;
21202;SDS011;10759;51.982;9.232;2022-09-28T05:07:36;3.53;;;3.30;;
21202;SDS011;10759;51.982;9.232;2022-09-28T05:10:05;3.40;;;3.10;;
21202;SDS011;10759;51.982;9.232;2022-09-28T05:12:35;3.70;;;3.42;;
21202;SDS011;10759;51.982;9.232;2022-09-28T05:15:04;4.50;;;4.18;;
21202;SDS011;10759;51.982;9.232;2022-09-28T05:17:32;3.80;;;3.60;;
21202;SDS011;10759;51.982;9.232;2022-09-28T05:20:03;4.55;;;4.15;;
21202;SDS011;10759;51.982;9.232;2022-09-28T05:22:32;5.70;;;5.30;;
21202;SDS011;10759;51.982;9.232;2022-09-28T05:25:01;5.55;;;5.15;;
21202;SDS011;10759;51.982;9.232;2022-09-28T05:27:39;5.85;;;5.35;;
21202;SDS011;10759;51.982;9.232;2022-09-28T05:30:22;7.20;;;6.57;;
21202;SDS011;10759;51.982;9.232;2022-09-28T05:33:10;7.22;;;6.53;;
21202;SDS011;10759;51.982;9.232;2022-09-28T05:35:46;6.75;;;6.25;;
21202;SDS011;10759;51.982;9.232;2022-09-28T05:38:19;7.50;;;6.90;;
21202;SDS011;10759;51.982;9.232;2022-09-28T05:40:49;8.27;;;7.68;;
21202;SDS011;10759;51.982;9.232;2022-09-28T05:43:17;9.38;;;8.68;;
21202;SDS011;10759;51.982;9.232;2022-09-28T05:45:44;10.45;;;9.75;;
21202;SDS011;10759;51.982;9.232;2022-09-28T05:48:20;10.38;;;9.48;;
21202;SDS011;10759;51.982;9.232;2022-09-28T05:50:49;11.13;;;10.15;;
21202;SDS011;10759;51.982;9.232;2022-09-28T05:53:17;13.32;;;12.23;;
21202;SDS011;10759;51.982;9.232;2022-09-28T05:55:45;14.35;;;13.25;;
21202;SDS011;10759;51.982;9.232;2022-09-28T05:58:15;13.40;;;12.30;;
21202;SDS011;10759;51.982;9.232;2022-09-28T06:00:43;14.43;;;13.25;;
21202;SDS011;10759;51.982;9.232;2022-09-28T06:03:12;14.23;;;13.02;;
21202;SDS011;10759;51.982;9.232;2022-09-28T06:05:41;13.65;;;12.60;;
21202;SDS011;10759;51.982;9.232;2022-09-28T06:08:08;14.77;;;13.48;;
21202;SDS011;10759;51.982;9.232;2022-09-28T06:10:41;15.50;;;14.05;;
21202;SDS011;10759;51.982;9.232;2022-09-28T06:13:09;15.75;;;14.45;;
21202;SDS011;10759;51.982;9.232;2022-09-28T06:15:40;16.98;;;15.57;;
21202;SDS011;10759;51.982;9.232;2022-09-28T06:18:12;17.40;;;15.85;;
21202;SDS011;10759;51.982;9.232;2022-09-28T06:21:06;17.48;;;16.02;;
21202;SDS011;10759;51.982;9.232;2022-09-28T06:23:41;17.38;;;15.88;;
21202;SDS011;10759;51.982;9.232;2022-09-28T06:26:16;18.02;;;16.35;;
21202;SDS011;10759;51.982;9.232;2022-09-28T06:28:44;18.92;;;17.23;;
21202;SDS011;10759;51.982;9.232;2022-09-28T06:31:14;20.58;;;16.33;;
21202;SDS011;10759;51.982;9.232;2022-09-28T06:33:47;17.52;;;16.13;;
21202;SDS011;10759;51.982;9.232;2022-09-28T06:36:16;18.25;;;16.50;;
21202;SDS011;10759;51.982;9.232;2022-09-28T06:38:44;19.13;;;17.27;;
21202;SDS011;10759;51.982;9.232;2022-09-28T06:41:13;19.08;;;17.35;;
21202;SDS011;10759;51.982;9.232;2022-09-28T06:43:43;18.90;;;17.30;;
21202;SDS011;10759;51.982;9.232;2022-09-28T06:46:11;18.35;;;16.67;;
21202;SDS011;10759;51.982;9.232;2022-09-28T06:48:46;18.55;;;16.85;;
21202;SDS011;10759;51.982;9.232;2022-09-28T06:51:34;17.10;;;15.70;;
21202;SDS011;10759;51.982;9.232;2022-09-28T06:54:16;16.48;;;14.98;;
21202;SDS011;10759;51.982;9.232;2022-09-28T06:56:55;16.58;;;14.98;;
21202;SDS011;10759;51.982;9.232;2022-09-28T06:59:23;16.90;;;15.50;;
21202;SDS011;10759;51.982;9.232;2022-09-28T07:01:51;17.58;;;15.98;;
21202;SDS011;10759;51.982;9.232;2022-09-28T07:04:44;16.67;;;15.27;;
21202;SDS011;10759;51.982;9.232;2022-09-28T07:07:31;17.98;;;16.48;;
21202;SDS011;10759;51.982;9.232;2022-09-28T07:10:20;16.73;;;15.20;;
21202;SDS011;10759;51.982;9.232;2022-09-28T07:13:21;16.67;;;15.25;;
21202;SDS011;10759;51.982;9.232;2022-09-28T07:16:10;18.80;;;16.88;;
21202;SDS011;10759;51.982;9.232;2022-09-28T07:18:39;18.20;;;16.35;;
21202;SDS011;10759;51.982;9.232;2022-09-28T07:21:09;17.88;;;16.30;;
21202;SDS011;10759;51.982;9.232;2022-09-28T07:23:53;16.08;;;14.68;;
21202;SDS011;10759;51.982;9.232;2022-09-28T07:26:21;16.65;;;15.23;;
21202;SDS011;10759;51.982;9.232;2022-09-28T07:29:04;17.63;;;16.13;;
21202;SDS011;10759;51.982;9.232;2022-09-28T07:31:58;17.02;;;15.32;;
21202;SDS011;10759;51.982;9.232;2022-09-28T07:34:38;15.30;;;14.07;;
21202;SDS011;10759;51.982;9.232;2022-09-28T07:37:18;15.13;;;13.70;;
21202;SDS011;10759;51.982;9.232;2022-09-28T07:39:48;15.50;;;14.20;;
21202;SDS011;10759;51.982;9.232;2022-09-28T07:42:36;15.15;;;13.80;;
21202;SDS011;10759;51.982;9.232;2022-09-28T07:45:05;14.20;;;13.10;;
21202;SDS011;10759;51.982;9.232;2022-09-28T07:47:34;15.63;;;14.32;;
21202;SDS011;10759;51.982;9.232;2022-09-28T07:50:31;15.38;;;14.13;;
21202;SDS011;10759;51.982;9.232;2022-09-28T07:53:10;14.60;;;13.30;;
21202;SDS011;10759;51.982;9.232;2022-09-28T07:56:02;13.40;;;12.23;;
21202;SDS011;10759;51.982;9.232;2022-09-28T07:58:39;13.98;;;12.68;;
21202;SDS011;10759;51.982;9.232;2022-09-28T08:01:25;13.07;;;11.88;;
21202;SDS011;10759;51.982;9.232;2022-09-28T08:03:53;13.07;;;11.95;;
21202;SDS011;10759;51.982;9.232;2022-09-28T08:06:22;14.70;;;13.32;;
21202;SDS011;10759;51.982;9.232;2022-09-28T08:08:51;12.95;;;11.77;;
21202;SDS011;10759;51.982;9.232;2022-09-28T08:11:29;12.53;;;11.53;;
21202;SDS011;10759;51.982;9.232;2022-09-28T08:14:11;13.98;;;12.85;;
21202;SDS011;10759;51.982;9.232;2022-09-28T08:17:07;11.23;;;10.13;;
21202;SDS011;10759;51.982;9.232;2022-09-28T08:19:41;10.27;;;9.38;;
21202;SDS011;10759;51.982;9.232;2022-09-28T08:22:23;10.77;;;9.95;;
21202;SDS011;10759;51.982;9.232;2022-09-28T08:24:55;9.35;;;8.40;;
21202;SDS011;10759;51.982;9.232;2022-09-28T08:27:23;10.45;;;9.50;;
21202;SDS011;10759;51.982;9.232;2022-09-28T08:29:52;9.52;;;8.70;;
21202;SDS011;10759;51.982;9.232;2022-09-28T08:32:44;7.93;;;7.22;;
21202;SDS011;10759;51.982;9.232;2022-09-28T08:35:33;7.82;;;7.15;;
21202;SDS011;10759;51.982;9.232;2022-09-28T08:38:11;8.27;;;7.47;;
21202;SDS011;10759;51.982;9.232;2022-09-28T08:41:14;7.70;;;7.05;;
21202;SDS011;10759;51.982;9.232;2022-09-28T08:44:21;8.45;;;7.43;;
21202;SDS011;10759;51.982;9.232;2022-09-28T08:46:58;8.07;;;7.38;;
21202;SDS011;10759;51.982;9.232;2022-09-28T08:49:48;7.65;;;6.85;;
21202;SDS011;10759;51.982;9.232;2022-09-28T08:52:20;7.57;;;6.88;;
21202;SDS011;10759;51.982;9.232;2022-09-28T08:55:01;8.57;;;7.82;;
21202;SDS011;10759;51.982;9.232;2022-09-28T08:57:42;7.93;;;7.22;;
21202;SDS011;10759;51.982;9.232;2022-09-28T09:00:16;7.60;;;7.00;;
21202;SDS011;10759;51.982;9.232;2022-09-28T09:02:48;7.72;;;7.13;;
21202;SDS011;10759;51.982;9.232;2022-09-28T09:05:18;7.72;;;7.07;;
21202;SDS011;10759;51.982;9.232;2022-09-28T09:08:12;7.45;;;6.75;;
21202;SDS011;10759;51.982;9.232;2022-09-28T09:10:51;8.60;;;7.80;;
21202;SDS011;10759;51.982;9.232;2022-09-28T09:13:37;11.00;;;9.02;;
21202;SDS011;10759;51.982;9.232;2022-09-28T09:16:28;9.32;;;8.40;;
21202;SDS011;10759;51.982;9.232;2022-09-28T09:19:27;9.30;;;8.60;;
21202;SDS011;10759;51.982;9.232;2022-09-28T09:22:32;10.95;;;9.60;;
21202;SDS011;10759;51.982;9.232;2022-09-28T09:25:11;10.50;;;9.50;;
21202;SDS011;10759;51.982;9.232;2022-09-28T09:27:50;10.30;;;9.50;;
21202;SDS011;10759;51.982;9.232;2022-09-28T09:30:37;11.48;;;10.38;;
21202;SDS011;10759;51.982;9.232;2022-09-28T09:33:25;10.70;;;9.70;;
21202;SDS011;10759;51.982;9.232;2022-09-28T09:36:45;10.88;;;9.93;;
21202;SDS011;10759;51.982;9.232;2022-09-28T09:39:56;11.07;;;10.02;;
21202;SDS011;10759;51.982;9.232;2022-09-28T09:43:04;10.80;;;9.82;;
21202;SDS011;10759;51.982;9.232;2022-09-28T09:46:18;10.93;;;9.48;;
21202;SDS011;10759;51.982;9.232;2022-09-28T09:49:13;10.77;;;9.40;;
21202;SDS011;10759;51.982;9.232;2022-09-28T09:51:47;8.82;;;8.13;;
21202;SDS011;10759;51.982;9.232;2022-09-28T09:54:25;10.30;;;9.40;;
21202;SDS011;10759;51.982;9.232;2022-09-28T09:56:58;9.23;;;8.32;;
21202;SDS011;10759;51.982;9.232;2022-09-28T09:59:43;9.40;;;8.60;;
21202;SDS011;10759;51.982;9.232;2022-09-28T10:02:35;9.10;;;8.40;;
21202;SDS011;10759;51.982;9.232;2022-09-28T10:05:18;8.55;;;7.85;;
21202;SDS011;10759;51.982;9.232;2022-09-28T10:07:50;8.98;;;8.23;;
21202;SDS011;10759;51.982;9.232;2022-09-28T10:10:24;9.23;;;8.32;;
21202;SDS011;10759;51.982;9.232;2022-09-28T10:13:12;10.80;;;9.70;;
21202;SDS011;10759;51.982;9.232;2022-09-28T10:15:41;12.73;;;10.10;;
21202;SDS011;10759;51.982;9.232;2022-09-28T10:18:18;10.57;;;9.57;;
21202;SDS011;10759;51.982;9.232;2022-09-28T10:21:11;11.43;;;10.32;;
21202;SDS011;10759;51.982;9.232;2022-09-28T10:23:54;12.15;;;10.93;;
21202;SDS011;10759;51.982;9.232;2022-09-28T10:26:28;11.95;;;10.85;;
21202;SDS011;10759;51.982;9.232;2022-09-28T10:29:02;11.02;;;10.05;;
21202;SDS011;10759;51.982;9.232;2022-09-28T10:31:36;9.68;;;8.57;;
21202;SDS011;10759;51.982;9.232;2022-09-28T10:34:13;9.23;;;8.52;;
21202;SDS011;10759;51.982;9.232;2022-09-28T10:36:44;9.43;;;8.45;;
21202;SDS011;10759;51.982;9.232;2022-09-28T10:39:22;8.93;;;8.13;;
21202;SDS011;10759;51.982;9.232;2022-09-28T10:41:55;9.93;;;9.13;;
21202;SDS011;10759;51.982;9.232;2022-09-28T10:44:27;11.07;;;9.98;;
21202;SDS011;10759;51.982;9.232;2022-09-28T10:47:04;8.52;;;7.75;;
21202;SDS011;10759;51.982;9.232;2022-09-28T10:49:39;10.18;;;9.30;;
21202;SDS011;10759;51.982;9.232;2022-09-28T10:52:28;10.20;;;9.40;;
21202;SDS011;10759;51.982;9.232;2022-09-28T10:54:58;11.07;;;10.00;;
21202;SDS011;10759;51.982;9.232;2022-09-28T10:57:27;12.88;;;11.75;;
21202;SDS011;10759;51.982;9.232;2022-09-28T11:00:13;13.02;;;11.85;;
21202;SDS011;10759;51.982;9.232;2022-09-28T11:03:16;13.80;;;12.70;;
21202;SDS011;10759;51.982;9.232;2022-09-28T11:05:58;12.13;;;11.00;;
21202;SDS011;10759;51.982;9.232;2022-09-28T11:08:29;13.95;;;12.75;;
21202;SDS011;10759;51.982;9.232;2022-09-28T11:11:02;14.98;;;13.57;;
21202;SDS011;10759;51.982;9.232;2022-09-28T11:13:37;14.80;;;13.43;;
21202;SDS011;10759;51.982;9.232;2022-09-28T11:16:18;13.90;;;12.70;;
21202;SDS011;10759;51.982;9.232;2022-09-28T11:18:49;11.63;;;10.52;;
21202;SDS011;10759;51.982;9.232;2022-09-28T11:21:22;10.68;;;9.77;;
21202;SDS011;10759;51.982;9.232;2022-09-28T11:24:00;7.40;;;6.90;;
21202;SDS011;10759;51.982;9.232;2022-09-28T11:26:40;7.38;;;6.45;;
21202;SDS011;10759;51.982;9.232;2022-09-28T11:29:36;8.48;;;7.30;;
21202;SDS011;10759;51.982;9.232;2022-09-28T11:32:28;5.85;;;5.45;;
21202;SDS011;10759;51.982;9.232;2022-09-28T11:35:18;6.75;;;6.15;;
21202;SDS011;10759;51.982;9.232;2022-09-28T11:41:22;6.43;;;5.13;;
21202;SDS011;10759;51.982;9.232;2022-09-28T11:47:24;4.47;;;4.13;;
21202;SDS011;10759;51.982;9.232;2022-09-28T11:50:13;5.47;;;5.00;;
21202;SDS011;10759;51.982;9.232;2022-09-28T11:52:53;5.97;;;5.55;;
21202;SDS011;10759;51.982;9.232;2022-09-28T11:55:29;6.13;;;5.53;;
21202;SDS011;10759;51.982;9.232;2022-09-28T11:58:03;5.45;;;4.95;;
21202;SDS011;10759;51.982;9.232;2022-09-28T12:00:40;5.35;;;4.05;;
21202;SDS011;10759;51.982;9.232;2022-09-28T12:03:13;4.57;;;4.18;;
21202;SDS011;10759;51.982;9.232;2022-09-28T12:05:46;4.47;;;4.05;;
21202;SDS011;10759;51.982;9.232;2022-09-28T12:08:18;4.40;;;4.03;;
21202;SDS011;10759;51.982;9.232;2022-09-28T12:11:18;3.17;;;2.88;;
21202;SDS011;10759;51.982;9.232;2022-09-28T12:14:09;3.70;;;3.40;;
21202;SDS011;10759;51.982;9.232;2022-09-28T12:16:43;4.40;;;3.90;;
21202;SDS011;10759;51.982;9.232;2022-09-28T12:19:32;3.30;;;3.00;;
21202;SDS011;10759;51.982;9.232;2022-09-28T12:22:08;3.90;;;3.00;;
21202;SDS011;10759;51.982;9.232;2022-09-28T12:24:43;3.72;;;3.38;;
21202;SDS011;10759;51.982;9.232;2022-09-28T12:27:16;4.40;;;2.72;;
21202;SDS011;10759;51.982;9.232;2022-09-28T12:29:51;4.53;;;2.70;;
21202;SDS011;10759;51.982;9.232;2022-09-28T12:32:27;4.15;;;3.75;;
21202;SDS011;10759;51.982;9.232;2022-09-28T12:35:01;6.35;;;4.05;;
21202;SDS011;10759;51.982;9.232;2022-09-28T12:37:33;3.85;;;2.88;;
21202;SDS011;10759;51.982;9.232;2022-09-28T12:40:20;3.42;;;3.15;;
21202;SDS011;10759;51.982;9.232;2022-09-28T12:43:00;4.60;;;4.20;;
21202;SDS011;10759;51.982;9.232;2022-09-28T12:45:45;6.47;;;5.85;;
21202;SDS011;10759;51.982;9.232;2022-09-28T12:48:55;5.43;;;4.90;;
21202;SDS011;10759;51.982;9.232;2022-09-28T12:51:54;4.85;;;3.78;;
21202;SDS011;10759;51.982;9.232;2022-09-28T12:54:30;4.53;;;4.13;;
21202;SDS011;10759;51.982;9.232;2022-09-28T12:57:15;5.20;;;4.00;;
21202;SDS011;10759;51.982;9.232;2022-09-28T12:59:59;4.28;;;3.88;;
21202;SDS011;10759;51.982;9.232;2022-09-28T13:05:57;4.07;;;3.22;;
21202;SDS011;10759;51.982;9.232;2022-09-28T13:08:56;3.70;;;3.40;;
21202;SDS011;10759;51.982;9.232;2022-09-28T13:11:36;3.80;;;3.50;;
21202;SDS011;10759;51.982;9.232;2022-09-28T13:14:20;3.13;;;2.92;;
21202;SDS011;10759;51.982;9.232;2022-09-28T13:17:05;3.75;;;3.45;;
21202;SDS011;10759;51.982;9.232;2022-09-28T13:19:45;3.35;;;3.03;;
21202;SDS011;10759;51.982;9.232;2022-09-28T13:22:23;2.90;;;2.70;;
21202;SDS011;10759;51.982;9.232;2022-09-28T13:25:00;3.03;;;2.70;;
21202;SDS011;10759;51.982;9.232;2022-09-28T13:27:36;2.53;;;1.70;;
21202;SDS011;10759;51.982;9.232;2022-09-28T13:30:11;2.60;;;2.13;;
21202;SDS011;10759;51.982;9.232;2022-09-28T13:32:42;1.92;;;1.38;;
21202;SDS011;10759;51.982;9.232;2022-09-28T13:35:12;1.73;;;1.52;;
21202;SDS011;10759;51.982;9.232;2022-09-28T13:37:41;2.37;;;1.60;;
21202;SDS011;10759;51.982;9.232;2022-09-28T13:40:09;1.55;;;1.05;;
21202;SDS011;10759;51.982;9.232;2022-09-28T13:45:35;4.97;;;3.78;;
21202;SDS011;10759;51.982;9.232;2022-09-28T13:48:17;1.42;;;1.20;;
21202;SDS011;10759;51.982;9.232;2022-09-28T13:50:55;1.58;;;1.30;;
21202;SDS011;10759;51.982;9.232;2022-09-28T13:53:34;1.90;;;1.30;;
21202;SDS011;10759;51.982;9.232;2022-09-28T13:56:16;2.13;;;1.77;;
21202;SDS011;10759;51.982;9.232;2022-09-28T13:58:53;1.77;;;1.50;;
21202;SDS011;10759;51.982;9.232;2022-09-28T14:01:27;1.35;;;1.25;;
21202;SDS011;10759;51.982;9.232;2022-09-28T14:04:11;1.70;;;1.60;;
21202;SDS011;10759;51.982;9.232;2022-09-28T14:06:43;2.88;;;1.90;;
21202;SDS011;10759;51.982;9.232;2022-09-28T14:09:22;2.25;;;2.05;;
21202;SDS011;10759;51.982;9.232;2022-09-28T14:11:54;2.58;;;2.38;;
21202;SDS011;10759;51.982;9.232;2022-09-28T14:16:57;4.65;;;3.50;;
21202;SDS011;10759;51.982;9.232;2022-09-28T14:19:43;3.50;;;3.00;;
21202;SDS011;10759;51.982;9.232;2022-09-28T14:22:14;2.83;;;2.45;;
21202;SDS011;10759;51.982;9.232;2022-09-28T14:24:58;2.80;;;2.60;;
21202;SDS011;10759;51.982;9.232;2022-09-28T14:27:37;4.55;;;2.70;;
21202;SDS011;10759;51.982;9.232;2022-09-28T14:30:18;2.80;;;2.42;;
21202;SDS011;10759;51.982;9.232;2022-09-28T14:32:53;3.13;;;2.85;;
21202;SDS011;10759;51.982;9.232;2022-09-28T14:35:26;3.20;;;2.67;;
21202;SDS011;10759;51.982;9.232;2022-09-28T14:37:59;3.55;;;2.55;;
21202;SDS011;10759;51.982;9.232;2022-09-28T14:40:56;3.47;;;3.17;;
21202;SDS011;10759;51.982;9.232;2022-09-28T14:43:36;3.00;;;2.70;;
21202;SDS011;10759;51.982;9.232;2022-09-28T14:46:40;3.75;;;2.45;;
21202;SDS011;10759;51.982;9.232;2022-09-28T14:55:10;2.42;;;2.22;;
21202;SDS011;10759;51.982;9.232;2022-09-28T14:57:40;2.58;;;2.10;;
21202;SDS011;10759;51.982;9.232;2022-09-28T15:00:14;2.80;;;2.60;;
21202;SDS011;10759;51.982;9.232;2022-09-28T15:02:46;2.33;;;2.13;;
21202;SDS011;10759;51.982;9.232;2022-09-28T15:05:18;2.60;;;1.50;;
21202;SDS011;10759;51.982;9.232;2022-09-28T15:07:52;2.17;;;1.98;;
21202;SDS011;10759;51.982;9.232;2022-09-28T15:10:23;2.75;;;1.90;;
21202;SDS011;10759;51.982;9.232;2022-09-28T15:12:57;2.47;;;2.08;;
21202;SDS011;10759;51.982;9.232;2022-09-28T15:15:29;2.10;;;1.90;;
21202;SDS011;10759;51.982;9.232;2022-09-28T15:18:06;2.28;;;1.80;;
21202;SDS011;10759;51.982;9.232;2022-09-28T15:20:54;1.98;;;1.88;;
21202;SDS011;10759;51.982;9.232;2022-09-28T15:23:24;3.90;;;2.30;;
21202;SDS011;10759;51.982;9.232;2022-09-28T15:25:59;2.95;;;1.70;;
21202;SDS011;10759;51.982;9.232;2022-09-28T15:28:28;2.75;;;2.53;;
21202;SDS011;10759;51.982;9.232;2022-09-28T15:30:59;2.03;;;1.40;;
21202;SDS011;10759;51.982;9.232;2022-09-28T15:33:29;2.10;;;1.92;;
21202;SDS011;10759;51.982;9.232;2022-09-28T15:36:17;2.60;;;1.27;;
21202;SDS011;10759;51.982;9.232;2022-09-28T15:38:55;0.98;;;0.98;;
21202;SDS011;10759;51.982;9.232;2022-09-28T15:41:26;1.30;;;1.00;;
21202;SDS011;10759;51.982;9.232;2022-09-28T15:44:07;1.30;;;1.20;;
21202;SDS011;10759;51.982;9.232;2022-09-28T15:46:49;1.73;;;1.45;;
21202;SDS011;10759;51.982;9.232;2022-09-28T15:49:39;1.40;;;1.30;;
21202;SDS011;10759;51.982;9.232;2022-09-28T15:57:39;2.28;;;1.35;;
21202;SDS011;10759;51.982;9.232;2022-09-28T16:00:21;1.10;;;1.00;;
21202;SDS011;10759;51.982;9.232;2022-09-28T16:03:02;1.40;;;1.30;;
21202;SDS011;10759;51.982;9.232;2022-09-28T16:05:47;1.15;;;0.98;;
21202;SDS011;10759;51.982;9.232;2022-09-28T16:08:16;1.42;;;1.33;;
21202;SDS011;10759;51.982;9.232;2022-09-28T16:10:56;1.60;;;1.50;;
21202;SDS011;10759;51.982;9.232;2022-09-28T16:13:33;1.92;;;1.80;;